Time;durP1;ratioP1;P1;durP2;ratioP2;P2;SDS_P1;SDS_P2;PMS_P1;PMS_P2;Temp;Humidity;BMP_temperature;BMP_pressure;BME280_temperature;BME280_humidity;BME280_pressure;Samples;Min_cycle;Max_cycle;Signal;HPM_P1;HPM_P2
2022/05/03 00:02:26;;;;;;;15.07;13.52;;;11.10;93.50;;;;;;5034848;28;20243;-76
2022/05/03 00:05:02;;;;;;;13.95;12.63;;;11.10;93.20;;;;;;5031819;28;20207;-76
2022/05/03 00:07:39;;;;;;;15.07;13.57;;;11.10;93.60;;;;;;5030152;28;20214;-76
2022/05/03 00:10:07;;;;;;;15.25;13.73;;;11.10;93.50;;;;;;5033942;28;20766;-76
2022/05/03 00:12:36;;;;;;;14.90;13.48;;;11.10;93.70;;;;;;5029236;28;20242;-78
2022/05/03 00:15:06;;;;;;;13.63;12.32;;;11.00;93.60;;;;;;5031469;28;20238;-76
2022/05/03 00:17:34;;;;;;;15.35;13.77;;;11.00;93.50;;;;;;5035354;28;20219;-76
2022/05/03 00:20:01;;;;;;;14.48;13.18;;;11.00;93.60;;;;;;5036373;28;20196;-76
2022/05/03 00:22:32;;;;;;;15.00;13.50;;;11.00;93.50;;;;;;5033758;28;20235;-76
2022/05/03 00:24:59;;;;;;;14.45;13.02;;;11.00;93.40;;;;;;5026655;28;20235;-76
2022/05/03 00:27:28;;;;;;;14.43;13.07;;;10.90;93.50;;;;;;5026142;28;20276;-77
2022/05/03 00:29:56;;;;;;;15.40;13.93;;;10.90;93.60;;;;;;5023212;28;20222;-75
2022/05/03 00:32:26;;;;;;;14.13;12.73;;;10.90;93.40;;;;;;5023148;28;20322;-76
2022/05/03 00:34:54;;;;;;;13.80;12.50;;;10.90;93.40;;;;;;5022004;28;20246;-76
2022/05/03 00:37:21;;;;;;;14.60;13.05;;;10.90;93.40;;;;;;5017541;28;20291;-76
2022/05/03 00:39:49;;;;;;;15.80;13.98;;;10.80;93.30;;;;;;5014954;28;20212;-76
2022/05/03 00:42:19;;;;;;;14.68;13.18;;;10.80;93.00;;;;;;5014284;28;20235;-76
2022/05/03 00:45:02;;;;;;;13.00;11.77;;;10.80;92.90;;;;;;5013350;28;20211;-76
2022/05/03 00:47:51;;;;;;;14.25;12.65;;;10.80;93.20;;;;;;5013462;28;20290;-77
2022/05/03 00:50:33;;;;;;;14.25;12.95;;;10.80;92.70;;;;;;5013773;28;20218;-75
2022/05/03 00:53:09;;;;;;;14.93;12.32;;;10.70;93.00;;;;;;5016634;28;20317;-76
2022/05/03 00:56:08;;;;;;;19.08;14.57;;;10.70;93.30;;;;;;5017034;28;20269;-76
2022/05/03 00:59:10;;;;;;;13.93;12.52;;;10.60;93.60;;;;;;5016689;28;20307;-76
2022/05/03 01:01:51;;;;;;;16.40;13.90;;;10.60;94.30;;;;;;5015054;28;20230;-77
2022/05/03 01:04:25;;;;;;;14.40;13.10;;;10.40;94.80;;;;;;5016763;28;20212;-76
2022/05/03 01:06:56;;;;;;;14.73;13.15;;;10.40;95.10;;;;;;5017097;28;20204;-75
2022/05/03 01:09:32;;;;;;;15.25;13.80;;;10.40;95.20;;;;;;5017683;28;20683;-76
2022/05/03 01:12:12;;;;;;;15.38;13.93;;;10.40;95.70;;;;;;5017850;28;20731;-77
2022/05/03 01:14:48;;;;;;;14.55;13.10;;;10.50;95.90;;;;;;5017199;28;20212;-76
2022/05/03 01:17:24;;;;;;;15.90;14.20;;;10.50;95.40;;;;;;5017173;28;20302;-76
2022/05/03 01:20:03;;;;;;;14.32;12.85;;;10.50;95.10;;;;;;5016744;28;20262;-77
2022/05/03 01:23:02;;;;;;;15.30;13.80;;;10.50;95.10;;;;;;5017028;28;20692;-76
2022/05/03 01:25:51;;;;;;;14.52;13.05;;;10.40;95.00;;;;;;5017592;28;20262;-75
2022/05/03 01:28:29;;;;;;;14.38;12.88;;;10.40;95.10;;;;;;5017573;28;20707;-74
2022/05/03 01:31:03;;;;;;;16.08;14.05;;;10.30;95.80;;;;;;5019402;28;20662;-76
2022/05/03 01:33:34;;;;;;;20.65;14.82;;;10.30;96.20;;;;;;5021263;28;20290;-75
2022/05/03 01:36:04;;;;;;;16.00;13.65;;;10.20;97.10;;;;;;5021269;28;20299;-76
2022/05/03 01:38:49;;;;;;;16.35;14.63;;;10.20;97.90;;;;;;5026542;28;20258;-76
2022/05/03 01:41:27;;;;;;;16.70;14.75;;;10.10;98.10;;;;;;5016345;28;20242;-76
2022/05/03 01:44:09;;;;;;;16.33;14.73;;;10.00;98.50;;;;;;5016990;28;20302;-75
2022/05/03 01:46:37;;;;;;;18.17;15.23;;;10.00;99.30;;;;;;5020885;28;20272;-76
2022/05/03 01:52:10;;;;;;;16.15;14.60;;;9.90;99.90;;;;;;5016342;28;20237;-76
2022/05/03 01:54:57;;;;;;;16.40;14.80;;;9.80;99.90;;;;;;5016299;28;20296;-76
2022/05/03 01:57:31;;;;;;;16.23;14.20;;;9.80;99.90;;;;;;5006882;28;20638;-76
2022/05/03 02:00:06;;;;;;;19.90;15.30;;;9.80;99.90;;;;;;5015303;28;20257;-76
2022/05/03 02:02:49;;;;;;;16.92;15.23;;;9.70;99.90;;;;;;5014941;28;20547;-75
2022/05/03 02:05:24;;;;;;;16.95;15.30;;;9.70;99.90;;;;;;5016815;28;20198;-76
2022/05/03 02:07:59;;;;;;;16.63;15.02;;;9.70;99.90;;;;;;5018676;28;20701;-76
2022/05/03 02:10:49;;;;;;;15.55;13.90;;;9.60;99.90;;;;;;5016508;28;20208;-76
2022/05/03 02:16:29;;;;;;;17.20;15.20;;;9.50;99.90;;;;;;5015192;28;20722;-76
2022/05/03 02:19:07;;;;;;;15.90;14.38;;;9.50;99.90;;;;;;5023005;28;20247;-76
2022/05/03 02:21:45;;;;;;;16.02;14.38;;;9.40;99.90;;;;;;5015299;28;20669;-75
2022/05/03 02:24:21;;;;;;;16.83;14.95;;;9.40;99.90;;;;;;5015144;28;20214;-76
2022/05/03 02:26:54;;;;;;;17.38;15.65;;;9.30;99.90;;;;;;5015040;28;20218;-76
2022/05/03 02:29:31;;;;;;;24.98;16.67;;;9.40;99.90;;;;;;5014478;28;20246;-76
2022/05/03 02:32:04;;;;;;;17.40;15.70;;;9.30;99.90;;;;;;5014716;28;20275;-76
2022/05/03 02:34:39;;;;;;;17.90;16.08;;;9.40;99.90;;;;;;5014928;28;20283;-76
2022/05/03 02:37:14;;;;;;;18.13;16.25;;;9.30;99.90;;;;;;5014694;28;20672;-76
2022/05/03 02:39:47;;;;;;;15.65;14.07;;;9.40;99.90;;;;;;5014364;28;20223;-76
2022/05/03 02:42:15;;;;;;;15.23;13.63;;;9.30;99.90;;;;;;5014464;28;20236;-76
2022/05/03 02:44:42;;;;;;;15.63;14.00;;;9.30;99.90;;;;;;5014953;28;20199;-76
2022/05/03 02:47:13;;;;;;;15.55;14.05;;;9.20;99.90;;;;;;5014744;28;20208;-76
2022/05/03 02:49:54;;;;;;;15.45;14.05;;;9.20;99.90;;;;;;5014182;28;20211;-77
2022/05/03 02:52:28;;;;;;;17.05;14.65;;;9.20;99.90;;;;;;5014080;28;20251;-77
2022/05/03 02:55:06;;;;;;;16.45;14.85;;;9.10;99.90;;;;;;5015050;28;20217;-76
2022/05/03 02:57:45;;;;;;;16.42;14.52;;;9.10;99.90;;;;;;5015252;28;20199;-77
2022/05/03 03:03:17;;;;;;;18.83;15.60;;;9.10;99.90;;;;;;5015260;28;20738;-76
2022/05/03 03:05:52;;;;;;;15.75;14.27;;;9.10;99.90;;;;;;5015553;28;20218;-76
2022/05/03 03:08:20;;;;;;;17.02;15.32;;;9.00;99.90;;;;;;5014729;28;20208;-76
2022/05/03 03:10:52;;;;;;;16.48;14.88;;;9.00;99.90;;;;;;5014450;28;20243;-76
2022/05/03 03:13:26;;;;;;;16.70;14.90;;;8.90;99.90;;;;;;5015118;28;20230;-76
2022/05/03 03:15:54;;;;;;;16.65;15.07;;;8.90;99.90;;;;;;5014483;28;20207;-76
2022/05/03 03:18:24;;;;;;;15.50;14.00;;;8.90;99.90;;;;;;5014239;28;20314;-76
2022/05/03 03:20:56;;;;;;;16.40;14.70;;;8.90;99.90;;;;;;5013726;28;20208;-77
2022/05/03 03:23:29;;;;;;;15.75;14.25;;;8.80;99.90;;;;;;5014149;28;20207;-76
2022/05/03 03:25:58;;;;;;;17.63;14.70;;;8.80;99.90;;;;;;5014564;28;20211;-76
2022/05/03 03:28:25;;;;;;;16.95;15.35;;;8.80;99.90;;;;;;5020120;28;20214;-75
2022/05/03 03:30:53;;;;;;;15.43;13.82;;;8.90;99.90;;;;;;5019946;28;20210;-76
2022/05/03 03:33:21;;;;;;;19.02;16.35;;;8.90;99.90;;;;;;5020256;28;20228;-76
2022/05/03 03:35:48;;;;;;;17.10;15.30;;;8.80;99.90;;;;;;5014453;28;20299;-76
2022/05/03 03:38:17;;;;;;;16.20;14.60;;;8.80;99.90;;;;;;5013605;28;20236;-76
2022/05/03 03:40:46;;;;;;;16.00;14.50;;;8.80;99.90;;;;;;5014790;28;20594;-76
2022/05/03 03:43:13;;;;;;;15.70;14.18;;;8.90;99.90;;;;;;5014035;28;20617;-77
2022/05/03 03:45:41;;;;;;;16.40;14.70;;;8.90;99.90;;;;;;4999918;28;20206;-77
2022/05/03 03:48:09;;;;;;;17.42;15.63;;;8.90;99.90;;;;;;5014456;28;20223;-77
2022/05/03 03:50:39;;;;;;;17.73;15.90;;;8.80;99.90;;;;;;5013589;28;20290;-77
2022/05/03 03:53:06;;;;;;;16.58;14.35;;;8.80;99.90;;;;;;5014291;28;20653;-77
2022/05/03 03:55:36;;;;;;;17.48;15.70;;;8.80;99.90;;;;;;5017356;28;20210;-77
2022/05/03 03:58:03;;;;;;;17.10;15.20;;;8.70;99.90;;;;;;5013366;28;20283;-76
2022/05/03 04:00:31;;;;;;;16.58;14.95;;;8.80;99.90;;;;;;4993932;28;20603;-77
2022/05/03 04:02:58;;;;;;;15.40;13.85;;;8.80;99.90;;;;;;4997325;28;20270;-77
2022/05/03 04:05:26;;;;;;;17.33;15.57;;;8.70;99.90;;;;;;5013941;28;20648;-76
2022/05/03 04:07:53;;;;;;;17.30;15.10;;;8.70;99.90;;;;;;5010788;28;20204;-77
2022/05/03 04:10:21;;;;;;;16.52;14.80;;;8.70;99.90;;;;;;4993539;28;20232;-77
2022/05/03 04:12:49;;;;;;;18.38;16.30;;;8.70;99.90;;;;;;4994064;28;20225;-77
2022/05/03 04:15:16;;;;;;;16.60;14.77;;;8.80;99.90;;;;;;4993541;28;20208;-77
2022/05/03 04:17:44;;;;;;;17.95;16.15;;;8.80;99.90;;;;;;4993939;28;20231;-77
2022/05/03 04:20:12;;;;;;;15.80;14.25;;;8.80;99.90;;;;;;4993707;28;20779;-77
2022/05/03 04:22:39;;;;;;;17.77;15.90;;;8.80;99.90;;;;;;5006287;28;20224;-77
2022/05/03 04:25:06;;;;;;;16.85;15.15;;;8.80;99.90;;;;;;5013346;28;20219;-77
2022/05/03 04:27:33;;;;;;;17.27;15.52;;;8.90;99.90;;;;;;5003171;28;20204;-77
2022/05/03 04:30:03;;;;;;;15.98;14.48;;;8.90;99.90;;;;;;4993808;28;20204;-78
2022/05/03 04:32:31;;;;;;;17.00;15.40;;;8.90;99.90;;;;;;4994911;28;20256;-78
2022/05/03 04:34:59;;;;;;;16.45;14.82;;;8.90;99.90;;;;;;4994089;28;20239;-76
2022/05/03 04:37:26;;;;;;;21.00;16.23;;;8.80;99.90;;;;;;4993541;28;20216;-77
2022/05/03 04:39:53;;;;;;;16.90;14.55;;;8.90;99.90;;;;;;4993180;28;20238;-77
2022/05/03 04:42:20;;;;;;;15.43;13.93;;;9.10;99.90;;;;;;4993250;28;20232;-77
2022/05/03 04:44:47;;;;;;;14.10;12.80;;;9.40;99.90;;;;;;4993080;28;20832;-77
2022/05/03 04:47:15;;;;;;;13.93;12.50;;;9.60;98.70;;;;;;4993578;28;20209;-75
2022/05/03 04:49:42;;;;;;;13.32;11.93;;;9.80;96.70;;;;;;4993027;28;20296;-76
2022/05/03 04:52:09;;;;;;;14.05;12.75;;;10.00;94.00;;;;;;4993017;28;20236;-75
2022/05/03 04:54:36;;;;;;;13.32;12.00;;;10.10;91.10;;;;;;4993488;28;20292;-75
2022/05/03 04:57:06;;;;;;;12.45;11.23;;;10.20;89.00;;;;;;4993755;28;20564;-75
2022/05/03 04:59:33;;;;;;;12.10;10.93;;;10.30;86.10;;;;;;4992798;28;20232;-76
2022/05/03 05:02:00;;;;;;;14.77;11.55;;;10.50;85.80;;;;;;4994765;28;20267;-76
2022/05/03 05:04:29;;;;;;;10.93;9.93;;;10.80;81.30;;;;;;4994784;28;20208;-76
2022/05/03 05:06:56;;;;;;;12.13;9.90;;;11.00;77.20;;;;;;4996629;28;20219;-77
2022/05/03 05:09:22;;;;;;;11.63;10.57;;;11.20;77.20;;;;;;4996665;28;20284;-77
2022/05/03 05:11:49;;;;;;;12.13;10.85;;;11.50;73.30;;;;;;4996652;28;20240;-77
2022/05/03 05:14:19;;;;;;;11.38;10.27;;;11.70;69.70;;;;;;4993926;28;20208;-77
2022/05/03 05:16:46;;;;;;;11.90;10.57;;;11.80;69.20;;;;;;4993632;28;20213;-77
2022/05/03 05:19:13;;;;;;;10.18;9.27;;;11.60;70.20;;;;;;4993188;28;20335;-76
2022/05/03 05:21:41;;;;;;;13.05;10.05;;;11.80;69.20;;;;;;4993655;28;20235;-77
2022/05/03 05:24:11;;;;;;;11.13;9.27;;;12.10;69.10;;;;;;4993624;28;20300;-76
2022/05/03 05:26:39;;;;;;;10.32;9.35;;;12.50;66.00;;;;;;4993059;28;20263;-76
2022/05/03 05:29:06;;;;;;;10.25;9.32;;;12.70;62.40;;;;;;4993559;28;20215;-76
2022/05/03 05:31:33;;;;;;;9.63;8.75;;;13.20;62.30;;;;;;4994837;28;20232;-76
2022/05/03 05:34:00;;;;;;;10.10;9.20;;;12.90;61.30;;;;;;4993870;28;20296;-77
2022/05/03 05:36:27;;;;;;;10.57;9.52;;;12.80;61.20;;;;;;4993638;28;20430;-77
2022/05/03 05:38:55;;;;;;;10.68;9.70;;;12.60;61.80;;;;;;4995757;28;20287;-77
2022/05/03 05:41:22;;;;;;;10.27;9.15;;;12.80;61.20;;;;;;4996510;28;20643;-77
2022/05/03 05:43:49;;;;;;;10.65;9.23;;;12.90;61.30;;;;;;4999053;28;20507;-77
2022/05/03 05:46:17;;;;;;;10.15;9.25;;;13.50;58.60;;;;;;5000251;28;20223;-76
2022/05/03 05:48:47;;;;;;;10.30;9.03;;;13.00;59.90;;;;;;4997764;28;20216;-76
2022/05/03 05:51:15;;;;;;;9.63;8.77;;;12.90;61.30;;;;;;4996370;28;20490;-77
2022/05/03 05:53:41;;;;;;;10.27;9.17;;;13.00;60.10;;;;;;4996818;28;20553;-77
2022/05/03 05:56:09;;;;;;;9.77;8.87;;;12.40;62.60;;;;;;4997623;28;20430;-76
2022/05/03 05:58:40;;;;;;;9.63;8.73;;;12.90;62.20;;;;;;4997871;28;20466;-77
2022/05/03 06:01:07;;;;;;;10.10;9.10;;;13.20;61.00;;;;;;4997499;28;20232;-77
2022/05/03 06:03:34;;;;;;;10.32;8.25;;;13.10;60.00;;;;;;4998330;28;20459;-76
2022/05/03 06:06:01;;;;;;;11.50;8.53;;;13.70;59.80;;;;;;5000573;28;20299;-76
2022/05/03 06:08:28;;;;;;;10.07;9.17;;;14.30;55.40;;;;;;4998087;28;20492;-77
2022/05/03 06:10:58;;;;;;;11.00;9.83;;;14.00;55.60;;;;;;4998404;28;20567;-77
2022/05/03 06:13:26;;;;;;;9.85;8.82;;;13.90;57.00;;;;;;4999283;28;20510;-76
2022/05/03 06:15:54;;;;;;;9.67;8.77;;;14.30;56.70;;;;;;5000033;28;20204;-76
2022/05/03 06:18:22;;;;;;;10.33;9.30;;;14.50;55.60;;;;;;5004852;28;20466;-76
2022/05/03 06:20:49;;;;;;;10.87;9.60;;;14.90;55.60;;;;;;5008671;28;20489;-76
2022/05/03 06:23:16;;;;;;;10.93;9.47;;;15.30;52.70;;;;;;5000106;28;20537;-76
2022/05/03 06:25:43;;;;;;;9.63;8.70;;;15.60;52.30;;;;;;4999499;28;20587;-76
2022/05/03 06:28:10;;;;;;;10.23;9.40;;;15.90;50.60;;;;;;5004860;28;20473;-76
2022/05/03 06:30:40;;;;;;;14.93;10.10;;;15.90;49.90;;;;;;5008631;28;20430;-76
2022/05/03 06:33:07;;;;;;;9.83;8.93;;;15.00;52.30;;;;;;5009623;28;20472;-77
2022/05/03 06:35:33;;;;;;;13.30;9.77;;;14.50;54.40;;;;;;5007424;28;20491;-77
2022/05/03 06:38:00;;;;;;;11.90;10.80;;;15.00;53.90;;;;;;5005887;28;20509;-76
2022/05/03 06:40:27;;;;;;;11.57;10.50;;;15.10;54.50;;;;;;5008505;28;20542;-77
2022/05/03 06:42:55;;;;;;;12.13;10.03;;;14.70;53.60;;;;;;5005961;28;20488;-76
2022/05/03 06:45:22;;;;;;;11.37;10.37;;;14.50;55.00;;;;;;4998252;28;20458;-76
2022/05/03 06:47:51;;;;;;;11.83;10.73;;;14.60;55.00;;;;;;4996832;28;20502;-77
2022/05/03 06:50:18;;;;;;;12.57;11.57;;;14.70;53.60;;;;;;4999539;28;20467;-77
2022/05/03 06:52:45;;;;;;;13.30;10.70;;;14.40;54.70;;;;;;5017500;28;20475;-75
2022/05/03 06:55:12;;;;;;;12.10;10.90;;;14.40;55.40;;;;;;5010975;28;20490;-76
2022/05/03 06:57:40;;;;;;;11.80;10.33;;;14.50;53.40;;;;;;4999693;28;20795;-75
2022/05/03 07:00:09;;;;;;;10.73;9.77;;;14.50;55.30;;;;;;4997341;28;20484;-76
2022/05/03 07:02:36;;;;;;;13.15;11.02;;;14.70;55.40;;;;;;4997661;28;20483;-77
2022/05/03 07:05:05;;;;;;;11.70;10.60;;;14.40;55.70;;;;;;4997795;28;20208;-76
2022/05/03 07:07:33;;;;;;;12.23;11.02;;;14.40;57.00;;;;;;4997149;28;20923;-76
2022/05/03 07:10:00;;;;;;;11.43;10.23;;;14.70;55.40;;;;;;4997761;28;20277;-76
2022/05/03 07:12:27;;;;;;;12.77;10.30;;;14.80;54.10;;;;;;4999344;28;20468;-77
2022/05/03 07:14:58;;;;;;;11.57;10.37;;;14.90;53.80;;;;;;4999836;28;20456;-76
2022/05/03 07:22:56;;;;;;;12.23;10.50;;;15.00;53.90;;;;;;4999043;28;20509;-78
2022/05/03 07:25:23;;;;;;;11.60;10.40;;;15.30;54.20;;;;;;4995915;28;20430;-78
2022/05/03 07:27:50;;;;;;;14.67;10.67;;;15.70;52.70;;;;;;4995601;28;20466;-77
2022/05/03 07:30:17;;;;;;;10.77;9.63;;;15.80;50.70;;;;;;4995153;28;20452;-77
2022/05/03 07:32:45;;;;;;;11.33;9.57;;;15.30;52.90;;;;;;4995305;28;20479;-77
2022/05/03 07:35:13;;;;;;;10.93;9.93;;;15.40;52.10;;;;;;4995251;28;20421;-77
2022/05/03 07:37:41;;;;;;;11.53;10.43;;;15.50;52.80;;;;;;4995141;28;20467;-78
2022/05/03 07:40:09;;;;;;;11.13;10.10;;;15.60;52.40;;;;;;4994657;28;20510;-76
2022/05/03 07:42:36;;;;;;;11.17;10.00;;;15.90;51.00;;;;;;4994313;28;20574;-77
2022/05/03 07:45:04;;;;;;;10.73;9.83;;;15.90;49.80;;;;;;4995626;28;20462;-76
2022/05/03 07:47:31;;;;;;;12.03;10.93;;;16.20;49.10;;;;;;4995548;28;20517;-76
2022/05/03 07:49:58;;;;;;;11.37;10.17;;;16.50;47.70;;;;;;4995739;28;20502;-77
2022/05/03 07:52:27;;;;;;;12.50;11.30;;;16.70;46.90;;;;;;4997416;28;20462;-77
2022/05/03 07:54:54;;;;;;;11.60;10.50;;;16.80;46.60;;;;;;4999187;28;20539;-77
2022/05/03 07:57:21;;;;;;;12.87;11.43;;;16.70;47.80;;;;;;5000205;28;20454;-77
2022/05/03 07:59:48;;;;;;;13.47;11.63;;;16.30;49.00;;;;;;4998479;28;20528;-77
2022/05/03 08:02:15;;;;;;;12.70;11.60;;;16.60;48.50;;;;;;4999482;28;20458;-77
2022/05/03 08:04:41;;;;;;;13.20;12.10;;;16.20;48.60;;;;;;4999034;28;20839;-77
2022/05/03 08:07:08;;;;;;;13.47;12.20;;;16.00;50.00;;;;;;4995334;28;20440;-76
2022/05/03 08:09:37;;;;;;;12.47;11.37;;;16.00;50.50;;;;;;4999560;28;20551;-77
2022/05/03 08:12:04;;;;;;;13.43;11.90;;;16.20;51.70;;;;;;4995128;28;20460;-77
2022/05/03 08:14:31;;;;;;;12.83;11.73;;;16.40;49.60;;;;;;4997036;28;20430;-76
2022/05/03 08:16:58;;;;;;;12.37;11.17;;;16.40;50.40;;;;;;5000819;28;20430;-77
2022/05/03 08:19:25;;;;;;;12.40;11.20;;;16.70;49.40;;;;;;4994440;28;20437;-76
2022/05/03 08:21:53;;;;;;;12.47;11.23;;;16.80;49.60;;;;;;4994177;28;21058;-76
2022/05/03 08:24:20;;;;;;;12.10;10.90;;;17.10;49.10;;;;;;4994368;28;20731;-76
2022/05/03 08:26:48;;;;;;;11.50;10.50;;;17.20;48.70;;;;;;4994671;28;20525;-75
2022/05/03 08:29:15;;;;;;;11.03;10.00;;;17.20;48.90;;;;;;4994309;28;20994;-75
2022/05/03 08:31:42;;;;;;;10.80;9.90;;;17.40;47.60;;;;;;4995135;28;20467;-76
2022/05/03 08:34:09;;;;;;;10.97;9.63;;;17.60;46.60;;;;;;4995356;28;20559;-76
2022/05/03 08:36:36;;;;;;;13.03;10.67;;;17.70;46.70;;;;;;4995804;28;20962;-78
2022/05/03 08:42:02;;;;;;;11.37;10.17;;;17.50;47.50;;;;;;4995939;28;20506;-77
2022/05/03 08:44:30;;;;;;;13.17;11.97;;;17.80;46.80;;;;;;5001207;28;20463;-76
2022/05/03 08:46:58;;;;;;;10.73;9.73;;;17.90;46.90;;;;;;4995371;28;20462;-77
2022/05/03 08:49:25;;;;;;;11.87;10.43;;;18.20;47.20;;;;;;4994601;28;20978;-77
2022/05/03 08:51:53;;;;;;;10.80;9.80;;;18.40;47.30;;;;;;4993890;28;20518;-76
2022/05/03 08:54:21;;;;;;;12.13;10.87;;;18.60;45.50;;;;;;4993791;28;20438;-76
2022/05/03 08:56:50;;;;;;;10.47;9.60;;;18.40;46.50;;;;;;4993528;28;20466;-77
2022/05/03 08:59:16;;;;;;;9.40;8.60;;;18.90;45.20;;;;;;4994290;28;20530;-76
2022/05/03 09:01:43;;;;;;;11.30;8.77;;;19.00;43.80;;;;;;4995489;28;20582;-77
2022/05/03 09:04:11;;;;;;;10.37;9.33;;;19.50;43.10;;;;;;5000178;28;20441;-77
2022/05/03 09:06:45;;;;;;;10.23;9.30;;;19.70;42.70;;;;;;4998299;28;20443;-77
2022/05/03 09:09:13;;;;;;;10.13;9.23;;;19.20;43.50;;;;;;4998001;28;20451;-76
2022/05/03 09:11:45;;;;;;;10.70;9.60;;;18.70;44.80;;;;;;5002653;28;20468;-76
2022/05/03 09:14:14;;;;;;;9.43;8.57;;;19.10;44.00;;;;;;5008324;28;20487;-76
2022/05/03 09:16:50;;;;;;;8.80;7.90;;;19.50;43.10;;;;;;5003646;28;20513;-76
2022/05/03 09:19:24;;;;;;;10.97;9.83;;;19.70;42.90;;;;;;4996802;28;20513;-76
2022/05/03 09:24:52;;;;;;;11.53;10.33;;;19.80;42.70;;;;;;4996668;28;20482;-76
2022/05/03 09:27:21;;;;;;;11.90;10.30;;;20.30;41.60;;;;;;4996785;28;20865;-76
2022/05/03 09:30:03;;;;;;;11.30;10.20;;;20.00;42.30;;;;;;4997624;28;20451;-76
2022/05/03 09:32:38;;;;;;;12.57;11.47;;;20.10;41.90;;;;;;4996552;28;20566;-76
2022/05/03 09:35:06;;;;;;;11.50;10.53;;;20.20;41.70;;;;;;4995979;28;20459;-76
2022/05/03 09:37:39;;;;;;;12.63;10.60;;;20.10;42.10;;;;;;4998819;28;20452;-76
2022/05/03 09:40:08;;;;;;;10.83;9.73;;;20.10;42.00;;;;;;4998155;28;20492;-77
2022/05/03 09:42:37;;;;;;;13.23;9.60;;;20.10;42.10;;;;;;4998160;28;20446;-76
2022/05/03 09:45:08;;;;;;;10.53;9.60;;;20.30;41.80;;;;;;4999035;28;20497;-77
2022/05/03 09:47:48;;;;;;;9.73;8.83;;;20.60;41.70;;;;;;4998139;28;21014;-76
2022/05/03 09:50:27;;;;;;;9.87;8.97;;;20.40;40.10;;;;;;4997526;28;20444;-76
2022/05/03 09:52:54;;;;;;;10.40;9.50;;;20.20;39.30;;;;;;4998401;28;20513;-77
2022/05/03 09:55:30;;;;;;;15.40;8.63;;;19.80;41.60;;;;;;4997961;28;20430;-77
2022/05/03 09:58:00;;;;;;;6.30;5.73;;;19.70;41.40;;;;;;4998008;28;20433;-76
2022/05/03 10:00:28;;;;;;;6.97;6.30;;;19.60;37.20;;;;;;4998634;28;21053;-77
2022/05/03 10:02:55;;;;;;;7.10;6.50;;;19.80;37.10;;;;;;4998529;28;20475;-77
2022/05/03 10:05:23;;;;;;;6.50;6.00;;;19.50;39.10;;;;;;4999206;28;20443;-77
2022/05/03 10:07:51;;;;;;;12.57;8.73;;;20.00;38.90;;;;;;4996878;28;20491;-77
2022/05/03 10:10:17;;;;;;;10.57;7.87;;;20.20;39.00;;;;;;4997474;28;20437;-77
2022/05/03 10:12:46;;;;;;;5.93;5.40;;;20.60;39.40;;;;;;4997913;28;20454;-76
2022/05/03 10:20:35;;;;;;;5.87;5.37;;;19.90;36.30;;;;;;4997148;28;20462;-76
2022/05/03 10:20:50;;;;;;;5.97;5.47;;;20.20;35.20;;;;;;4997752;28;20502;-76
2022/05/03 10:23:21;;;;;;;4.87;4.43;;;19.70;36.50;;;;;;5001596;28;20488;-75
2022/05/03 10:25:56;;;;;;;6.10;5.07;;;19.90;33.60;;;;;;5007835;28;20453;-76
2022/05/03 10:28:24;;;;;;;6.10;5.50;;;20.20;34.90;;;;;;5008890;28;20422;-75
2022/05/03 10:31:12;;;;;;;5.73;5.23;;;20.30;35.60;;;;;;5003500;28;20515;-76
2022/05/03 10:33:41;;;;;;;5.40;4.90;;;20.40;34.50;;;;;;5000097;28;20482;-76
2022/05/03 10:36:40;;;;;;;5.70;5.10;;;20.60;35.90;;;;;;5004688;28;20466;-76
2022/05/03 10:39:20;;;;;;;5.97;5.53;;;20.90;35.60;;;;;;5001468;28;20431;-75
2022/05/03 10:41:54;;;;;;;5.33;4.93;;;20.50;35.60;;;;;;4996583;28;20499;-76
2022/05/03 10:44:41;;;;;;;4.90;4.60;;;20.50;34.40;;;;;;4996938;28;20421;-76
2022/05/03 10:47:08;;;;;;;5.50;5.10;;;20.20;34.50;;;;;;4997747;28;20434;-76
2022/05/03 10:50:26;;;;;;;5.40;4.90;;;20.30;34.60;;;;;;4997595;28;20455;-77
2022/05/03 10:53:18;;;;;;;5.53;4.30;;;20.40;35.00;;;;;;4959545;28;20470;-76
2022/05/03 10:56:09;;;;;;;4.40;4.10;;;20.40;33.80;;;;;;4999188;28;20455;-77
2022/05/03 10:58:37;;;;;;;3.97;3.67;;;20.50;31.80;;;;;;4999013;28;20517;-76
2022/05/03 11:01:06;;;;;;;4.13;3.90;;;20.50;30.70;;;;;;4998721;28;20491;-77
2022/05/03 11:03:34;;;;;;;4.70;4.30;;;20.30;31.60;;;;;;5000066;28;20495;-76
2022/05/03 11:06:38;;;;;;;4.80;4.40;;;20.60;32.20;;;;;;5000761;28;20523;-77
2022/05/03 11:09:11;;;;;;;5.37;4.97;;;20.40;33.70;;;;;;5008190;28;20422;-76
2022/05/03 11:11:55;;;;;;;4.50;4.10;;;20.60;33.70;;;;;;5010872;28;20507;-76
2022/05/03 11:14:49;;;;;;;5.93;4.47;;;20.90;32.90;;;;;;5013126;28;20430;-76
2022/05/03 11:17:17;;;;;;;3.43;3.23;;;20.70;31.20;;;;;;5017293;28;20435;-75
2022/05/03 11:20:05;;;;;;;3.53;3.33;;;21.00;29.60;;;;;;5013797;28;20465;-76
2022/05/03 11:22:36;;;;;;;7.40;3.93;;;20.90;29.50;;;;;;5008047;28;20474;-76
2022/05/03 11:25:08;;;;;;;4.17;3.87;;;20.50;29.20;;;;;;5002182;28;20463;-77
2022/05/03 11:27:35;;;;;;;3.87;3.57;;;20.60;29.30;;;;;;5011415;28;20860;-77
2022/05/03 11:30:07;;;;;;;5.17;4.67;;;20.80;29.50;;;;;;5010986;28;20462;-74
2022/05/03 11:32:38;;;;;;;5.60;4.30;;;21.20;29.80;;;;;;5005413;28;20490;-77
2022/05/03 11:35:07;;;;;;;4.10;3.80;;;21.50;30.00;;;;;;5006474;28;20466;-76
2022/05/03 11:38:03;;;;;;;4.33;3.93;;;21.00;29.00;;;;;;5005701;28;20467;-79
2022/05/03 11:40:46;;;;;;;4.60;4.20;;;21.10;29.50;;;;;;5007117;28;20493;-77
2022/05/03 11:43:15;;;;;;;5.43;4.33;;;21.00;29.60;;;;;;5009276;28;20458;-77
2022/05/03 11:45:44;;;;;;;4.70;4.30;;;21.00;29.70;;;;;;5003357;28;20940;-76
2022/05/03 11:48:12;;;;;;;3.60;3.40;;;21.00;29.70;;;;;;4996736;28;20454;-76
2022/05/03 11:56:12;;;;;;;3.97;3.60;;;22.20;28.20;;;;;;4999754;28;20452;-77
2022/05/03 11:58:40;;;;;;;3.93;3.63;;;22.20;26.70;;;;;;4997075;28;20779;-78
2022/05/03 12:01:15;;;;;;;4.77;4.40;;;21.80;27.70;;;;;;5006335;28;20488;-80
2022/05/03 12:03:47;;;;;;;4.60;4.10;;;21.60;28.40;;;;;;4999462;28;20430;-76
2022/05/03 12:06:15;;;;;;;4.73;4.30;;;21.90;28.30;;;;;;4999301;28;20419;-77
2022/05/03 12:08:45;;;;;;;6.50;4.33;;;22.10;28.20;;;;;;5000031;28;20463;-77
2022/05/03 12:11:20;;;;;;;4.50;4.20;;;22.50;28.20;;;;;;5007163;28;20496;-77
2022/05/03 12:13:47;;;;;;;4.30;4.00;;;22.50;28.20;;;;;;5009424;28;20427;-77
2022/05/03 12:16:16;;;;;;;4.60;4.13;;;23.20;27.60;;;;;;5008547;28;20468;-77
2022/05/03 12:18:45;;;;;;;5.27;4.87;;;23.70;26.60;;;;;;5010049;28;20451;-76
2022/05/03 12:21:14;;;;;;;5.17;4.10;;;23.50;26.30;;;;;;5004294;28;20492;-77
2022/05/03 12:23:47;;;;;;;4.50;4.10;;;22.60;27.50;;;;;;5001619;28;20433;-78
2022/05/03 12:26:25;;;;;;;4.20;3.83;;;21.60;27.90;;;;;;4999831;28;20434;-77
2022/05/03 12:28:54;;;;;;;4.73;4.33;;;21.50;28.80;;;;;;4999327;28;20426;-77
2022/05/03 12:31:22;;;;;;;4.23;3.93;;;21.70;28.00;;;;;;4995891;28;20506;-77
2022/05/03 12:33:52;;;;;;;5.10;4.60;;;21.90;28.40;;;;;;4996759;28;20457;-77
2022/05/03 12:36:34;;;;;;;5.47;5.00;;;22.00;28.30;;;;;;4998948;28;20573;-77
2022/05/03 12:39:16;;;;;;;5.00;4.60;;;22.20;27.80;;;;;;4999904;28;20960;-78
2022/05/03 12:41:45;;;;;;;4.90;4.50;;;22.80;27.00;;;;;;4997979;28;20924;-78
2022/05/03 12:44:14;;;;;;;4.53;4.10;;;23.20;26.60;;;;;;4999171;28;20426;-76
2022/05/03 12:46:41;;;;;;;5.20;4.70;;;23.30;26.40;;;;;;4999109;28;20456;-77
2022/05/03 12:49:11;;;;;;;4.73;4.43;;;23.50;25.00;;;;;;5000259;28;20499;-77
2022/05/03 12:51:40;;;;;;;4.43;4.10;;;22.80;26.00;;;;;;4998983;28;20467;-77
2022/05/03 12:54:08;;;;;;;4.80;4.27;;;22.50;27.00;;;;;;5001595;28;20535;-77
2022/05/03 12:59:23;;;;;;;4.77;4.27;;;21.80;28.40;;;;;;5001639;28;20766;-77
2022/05/03 13:01:51;;;;;;;5.10;4.70;;;21.90;27.20;;;;;;5006381;28;20462;-76
2022/05/03 13:04:20;;;;;;;4.83;4.47;;;21.70;27.80;;;;;;5002624;28;20435;-76
2022/05/03 13:06:48;;;;;;;4.63;4.30;;;22.10;27.00;;;;;;5004154;28;20463;-76
2022/05/03 13:09:15;;;;;;;9.50;5.57;;;22.60;26.40;;;;;;5000475;28;20459;-77
2022/05/03 13:11:44;;;;;;;7.97;7.13;;;22.80;27.40;;;;;;5001265;28;20477;-77
2022/05/03 13:14:13;;;;;;;8.20;7.50;;;22.50;29.20;;;;;;5002875;28;20426;-78
2022/05/03 13:16:40;;;;;;;8.07;7.27;;;22.00;30.40;;;;;;5003519;28;20436;-77
2022/05/03 13:19:07;;;;;;;8.70;7.70;;;22.00;30.30;;;;;;5004719;28;20434;-78
2022/05/03 13:21:36;;;;;;;8.00;7.30;;;21.90;30.30;;;;;;5008034;28;20515;-77
2022/05/03 13:24:04;;;;;;;7.50;6.80;;;22.10;30.40;;;;;;5013862;28;20468;-77
2022/05/03 13:26:32;;;;;;;6.73;6.13;;;22.20;30.50;;;;;;5014751;28;20475;-76
2022/05/03 13:29:01;;;;;;;7.00;6.43;;;22.20;30.50;;;;;;5003634;28;20430;-77